Hlavní strana
METAR-TAF:

METAR-TAF

Letiště :

Harrisburg-Raleigh Airport

Harrisburg, Illinois, Spojené státy americké

zeměpisná šířka: 37-48-41N, zeměpisná délka: 088-32-57W, výška: 121 m

Aktuální stav počasí

Zpráva byla vytvořena před 31 minutami, v 09:55 UTC
Severozápadní vítr 14 kt s nárazy do 17 kt
Teplota -1°C
Vlhkost vzduchu 69%
Tlak 1020 hPa
Viditelnost: 16.1 km
Jasno

METAR: KHSB 100955Z AUTO 31014G17KT 10SM CLR M01/M06 A3012 RMK AO2 T10151065

Čas: 04:26 (10:26 UTC)


TAF: chybějící

Stav a předpovědi počasí z více než 4 000 letišť (zprávy METAR a TAF).

Červené a žluté tečky na mapě představují dostupné meteorologické stanice.

Když kurzor umístíte na tečku, zobrazí se název stanice.

Pak kliknutím zobrazíte stav a předpověď počasí.

Chcete-li změnit mapu, kliknutím na zelené tlačítko se znaménkem +mapu přiblížíte, kliknutím na zelené tlačítko se znaménkem – mapu oddálíte a kliknutím na zelené šipky přejdete na sousední mapy.


METAR-TAF: